createdAt,value
2018-08-22T06:15:21.439Z,20.11
2018-08-22T06:17:51.560Z,20.19
2018-08-22T06:20:21.689Z,20.24
2018-08-22T06:22:51.707Z,20.31
2018-08-22T06:25:21.688Z,20.37
2018-08-22T06:27:52.074Z,20.44
2018-08-22T06:30:22.720Z,20.48
2018-08-22T06:32:52.824Z,20.55
2018-08-22T06:35:22.908Z,20.62
2018-08-22T06:37:52.965Z,20.70
2018-08-22T06:40:23.022Z,20.80
2018-08-22T06:42:53.110Z,20.90
2018-08-22T06:45:23.127Z,20.98
2018-08-22T06:47:53.104Z,21.04
2018-08-22T06:50:23.077Z,21.10
2018-08-22T06:52:53.155Z,21.17
2018-08-22T06:55:23.285Z,21.25
2018-08-22T06:57:53.223Z,21.34
2018-08-22T07:00:23.237Z,21.42
2018-08-22T07:02:53.335Z,21.50
2018-08-22T07:05:23.228Z,21.56
2018-08-22T07:07:53.339Z,21.63
2018-08-22T07:10:23.321Z,21.67
2018-08-22T07:12:53.379Z,21.74
2018-08-22T07:15:23.337Z,21.81
2018-08-22T07:17:53.411Z,21.94
2018-08-22T07:20:23.507Z,22.01
2018-08-22T07:22:53.476Z,22.09
2018-08-22T07:25:23.432Z,22.12
2018-08-22T07:27:53.509Z,22.19
2018-08-22T07:30:23.497Z,22.25
2018-08-22T07:32:53.571Z,22.31
2018-08-22T07:35:23.595Z,22.42
2018-08-22T07:37:53.603Z,22.48
2018-08-22T07:40:23.504Z,22.60
2018-08-22T07:42:53.614Z,22.67
2018-08-22T07:45:23.637Z,22.74
2018-08-22T07:47:53.718Z,22.81
2018-08-22T07:50:23.851Z,22.86
2018-08-22T07:52:58.883Z,22.95
2018-08-22T07:55:28.920Z,23.09
2018-08-22T07:57:58.988Z,23.16
2018-08-22T08:00:29.100Z,23.22
2018-08-22T08:02:59.455Z,23.31
2018-08-22T08:05:30.570Z,23.42
2018-08-22T08:08:00.731Z,23.53
2018-08-22T08:10:31.738Z,23.64
2018-08-22T08:13:02.239Z,23.74
2018-08-22T08:15:32.331Z,23.81
2018-08-22T08:18:32.810Z,23.84
2018-08-22T08:21:02.822Z,24.04
2018-08-22T08:23:32.801Z,24.03
2018-08-22T08:26:02.724Z,24.04
2018-08-22T08:28:33.032Z,24.14
2018-08-22T08:31:02.935Z,24.32
2018-08-22T08:33:32.911Z,24.39
2018-08-22T08:36:02.969Z,24.46
2018-08-22T08:38:32.962Z,24.48
2018-08-22T08:41:02.931Z,24.54
2018-08-22T08:43:33.620Z,24.62
2018-08-22T08:46:03.772Z,24.70
2018-08-22T08:48:34.046Z,24.83
2018-08-22T08:51:04.069Z,24.89
2018-08-22T08:53:34.118Z,24.96
2018-08-22T08:56:04.180Z,24.97
2018-08-22T08:58:34.310Z,25.00
2018-08-22T09:01:04.384Z,25.09
2018-08-22T09:03:34.521Z,25.15
2018-08-22T09:06:04.729Z,25.30
2018-08-22T09:08:34.839Z,25.40
2018-08-22T09:11:04.962Z,25.49
2018-08-22T09:13:36.288Z,25.61
2018-08-22T09:16:06.321Z,25.61
2018-08-22T09:18:36.448Z,25.62
2018-08-22T09:21:06.484Z,25.78
2018-08-22T09:23:36.666Z,25.91
2018-08-22T09:26:06.684Z,26.09
2018-08-22T09:28:36.756Z,26.20
2018-08-22T09:31:06.727Z,26.30
2018-08-22T09:33:36.818Z,26.41
2018-08-22T09:36:06.886Z,26.52
2018-08-22T09:38:36.997Z,26.61
2018-08-22T09:41:07.029Z,26.64
2018-08-22T09:43:37.077Z,26.78
2018-08-22T09:46:07.196Z,26.87
2018-08-22T09:48:37.166Z,26.92
2018-08-22T09:51:07.449Z,26.93
2018-08-22T09:53:37.421Z,26.99
2018-08-22T09:56:07.577Z,27.07
2018-08-22T09:58:37.771Z,27.11
2018-08-22T10:01:13.092Z,27.12
2018-08-22T10:03:53.237Z,27.20
2018-08-22T10:06:31.352Z,27.31
2018-08-22T10:09:04.144Z,27.38
2018-08-22T10:11:34.158Z,27.44
2018-08-22T10:14:04.262Z,27.48
2018-08-22T10:16:34.339Z,27.61
2018-08-22T10:19:04.541Z,27.74
2018-08-22T10:21:34.692Z,27.87
2018-08-22T10:24:04.770Z,27.95
2018-08-22T10:26:34.837Z,28.00
2018-08-22T10:29:04.988Z,28.04
2018-08-22T10:32:05.486Z,28.08
2018-08-22T10:34:35.545Z,28.24
2018-08-22T10:37:05.562Z,28.30
2018-08-22T10:39:35.683Z,28.32
2018-08-22T10:42:05.711Z,28.39
2018-08-22T10:44:35.764Z,28.40
2018-08-22T10:47:05.826Z,28.38
2018-08-22T10:49:35.890Z,28.50
2018-08-22T10:52:05.981Z,28.59
2018-08-22T10:54:36.092Z,28.66
2018-08-22T10:57:06.218Z,28.70
2018-08-22T10:59:36.321Z,28.79
2018-08-22T11:02:06.420Z,28.86
2018-08-22T11:04:36.649Z,28.89
2018-08-22T11:07:06.589Z,28.96
2018-08-22T11:09:36.801Z,29.04
2018-08-22T11:12:06.850Z,29.11
2018-08-22T11:14:36.953Z,29.11
2018-08-22T11:17:37.189Z,29.09
2018-08-22T11:20:07.319Z,29.15
2018-08-22T11:22:47.845Z,29.13
2018-08-22T11:25:28.562Z,29.10
2018-08-22T11:28:09.064Z,29.18
2018-08-22T11:30:49.795Z,29.36
2018-08-22T11:33:30.409Z,29.52
2018-08-22T11:35:58.893Z,29.56
2018-08-22T11:38:28.917Z,29.57
2018-08-22T11:40:59.035Z,29.60
2018-08-22T11:43:29.143Z,29.65
2018-08-22T11:45:59.266Z,29.75
2018-08-22T11:48:29.385Z,29.80
2018-08-22T11:50:59.492Z,29.79
2018-08-22T11:53:29.531Z,29.78
2018-08-22T11:55:59.682Z,29.83
2018-08-22T11:58:29.563Z,29.86
2018-08-22T12:00:59.581Z,30.02
2018-08-22T12:03:29.696Z,30.03
2018-08-22T12:05:59.693Z,30.07
2018-08-22T12:08:29.727Z,30.07
2018-08-22T12:10:59.899Z,30.15
2018-08-22T12:13:29.938Z,30.17
2018-08-22T12:16:00.034Z,30.20
2018-08-22T12:18:30.072Z,30.19
2018-08-22T12:21:00.191Z,30.24
2018-08-22T12:23:30.242Z,30.19
2018-08-22T12:26:00.328Z,29.94
2018-08-22T12:28:30.243Z,29.68
2018-08-22T12:31:00.355Z,29.56
2018-08-22T12:33:30.425Z,29.58
2018-08-22T12:36:00.533Z,29.67
2018-08-22T12:38:30.520Z,29.65
2018-08-22T12:41:00.576Z,29.70
2018-08-22T12:43:30.697Z,29.90
2018-08-22T12:46:00.887Z,29.94
2018-08-22T12:48:31.264Z,30.02
2018-08-22T12:51:01.425Z,30.20
2018-08-22T12:53:31.587Z,30.28
2018-08-22T12:56:01.686Z,30.39
2018-08-22T12:58:31.857Z,30.38
2018-08-22T13:01:01.862Z,30.40
2018-08-22T13:03:31.939Z,30.39
2018-08-22T13:06:02.057Z,30.44
2018-08-22T13:08:32.128Z,30.51
2018-08-22T13:11:03.282Z,30.59
2018-08-22T13:13:33.349Z,30.68
2018-08-22T13:16:03.370Z,30.79
2018-08-22T13:18:33.369Z,30.90
2018-08-22T13:21:03.434Z,31.03
2018-08-22T13:23:33.497Z,31.12
2018-08-22T13:26:03.579Z,31.22
2018-08-22T13:28:33.537Z,31.31
2018-08-22T13:31:03.624Z,31.31
2018-08-22T13:33:33.640Z,31.30
2018-08-22T13:36:03.707Z,31.40
2018-08-22T13:38:33.779Z,31.50
2018-08-22T13:41:03.867Z,31.55
2018-08-22T13:43:33.913Z,31.54
2018-08-22T13:46:04.056Z,31.58
2018-08-22T13:48:33.981Z,31.64
2018-08-22T13:51:04.024Z,31.70
2018-08-22T13:53:33.974Z,31.86
2018-08-22T13:56:04.468Z,32.09
2018-08-22T13:58:34.427Z,32.12
2018-08-22T14:01:04.535Z,32.18
2018-08-22T14:03:34.622Z,32.30
2018-08-22T14:06:04.555Z,32.37
2018-08-22T14:08:34.631Z,32.46
2018-08-22T14:11:04.712Z,32.38
2018-08-22T14:13:34.849Z,32.30
2018-08-22T14:16:04.967Z,32.37
2018-08-22T14:18:35.020Z,32.56
2018-08-22T14:21:05.228Z,32.76
2018-08-22T14:23:35.280Z,33.03
2018-08-22T14:26:05.342Z,33.25
2018-08-22T14:28:35.210Z,33.62
2018-08-22T14:31:05.313Z,34.04
2018-08-22T14:33:35.401Z,34.48
2018-08-22T14:36:05.233Z,34.79
2018-08-22T14:38:35.282Z,34.95
2018-08-22T14:41:05.401Z,35.22
2018-08-22T14:43:35.461Z,35.54
2018-08-22T14:46:05.563Z,35.79
2018-08-22T14:48:35.823Z,36.06
2018-08-22T14:51:05.918Z,36.27
2018-08-22T14:53:36.009Z,36.26
2018-08-22T14:56:06.211Z,36.31
2018-08-22T14:58:36.157Z,36.43
2018-08-22T15:01:06.323Z,36.47
2018-08-22T15:03:36.484Z,36.41
2018-08-22T15:06:06.559Z,36.40
2018-08-22T15:08:36.619Z,36.22
2018-08-22T15:11:06.750Z,36.18
2018-08-22T15:13:36.664Z,36.10
2018-08-22T15:16:06.859Z,35.99
2018-08-22T15:18:37.029Z,36.13
2018-08-22T15:21:07.035Z,36.32
2018-08-22T15:23:37.101Z,36.54
2018-08-22T15:26:07.228Z,36.58
2018-08-22T15:28:37.215Z,36.57
2018-08-22T15:31:07.267Z,36.47
2018-08-22T15:33:37.352Z,36.48
2018-08-22T15:36:07.471Z,36.46
2018-08-22T15:38:37.475Z,36.42
2018-08-22T15:41:07.636Z,36.45
2018-08-22T15:43:37.793Z,36.42
2018-08-22T15:46:07.928Z,36.38
2018-08-22T15:48:38.027Z,36.21
2018-08-22T15:51:08.124Z,36.05
2018-08-22T15:53:38.087Z,35.78
2018-08-22T15:56:08.243Z,35.68
2018-08-22T15:58:38.226Z,35.57
2018-08-22T16:01:08.248Z,35.42
2018-08-22T16:03:38.247Z,35.08
2018-08-22T16:06:08.243Z,34.77
2018-08-22T16:08:38.278Z,34.76
2018-08-22T16:11:08.410Z,34.71
2018-08-22T16:13:39.458Z,34.44
2018-08-22T16:16:09.528Z,33.96
2018-08-22T16:18:39.563Z,33.66
2018-08-22T16:21:09.630Z,33.45
2018-08-22T16:23:40.130Z,33.30
2018-08-22T16:26:10.166Z,33.04
2018-08-22T16:28:52.863Z,32.81
2018-08-22T16:31:25.237Z,32.56
2018-08-22T16:33:55.328Z,32.37
2018-08-22T16:36:29.340Z,32.28
2018-08-22T16:39:00.047Z,32.11
2018-08-22T16:41:30.087Z,31.97
2018-08-22T16:44:00.062Z,31.85
2018-08-22T16:46:30.398Z,31.71
2018-08-22T16:49:00.355Z,31.59
2018-08-22T16:51:30.357Z,31.42
2018-08-22T16:54:05.276Z,31.33
2018-08-22T16:56:35.857Z,31.27
2018-08-22T16:59:09.971Z,31.18
2018-08-22T17:01:43.787Z,31.09
2018-08-22T17:04:13.791Z,30.95
2018-08-22T17:06:43.745Z,30.83
2018-08-22T17:09:13.785Z,30.73
2018-08-22T17:11:43.684Z,30.68
2018-08-22T17:14:13.723Z,30.65
2018-08-22T17:16:43.612Z,30.58
2018-08-22T17:19:13.653Z,30.48
2018-08-22T17:21:43.749Z,30.41
2018-08-22T17:24:13.755Z,30.26
2018-08-22T17:26:43.748Z,30.16
2018-08-22T17:29:13.623Z,30.06
2018-08-22T17:31:45.980Z,29.96
2018-08-22T17:34:16.303Z,29.86
2018-08-22T17:36:52.359Z,29.75
2018-08-22T17:39:22.831Z,29.63
2018-08-22T17:41:52.767Z,29.56
2018-08-22T17:44:22.974Z,29.49
2018-08-22T17:46:52.987Z,29.43
2018-08-22T17:49:22.988Z,29.35
2018-08-22T17:52:02.077Z,29.28
2018-08-22T17:54:32.115Z,29.16
2018-08-22T17:57:14.057Z,29.03
2018-08-22T17:59:44.865Z,28.89
2018-08-22T18:02:14.937Z,28.75
2018-08-22T18:05:02.780Z,28.64
2018-08-22T18:07:32.778Z,28.52
2018-08-22T18:10:04.298Z,28.43
2018-08-22T18:12:34.823Z,28.35
2018-08-22T18:15:05.336Z,28.27
2018-08-22T18:17:35.403Z,28.20
2018-08-22T18:20:05.591Z,28.10
2018-08-22T18:22:37.172Z,28.00
2018-08-22T18:25:08.284Z,27.89
2018-08-22T18:27:38.158Z,27.79
2018-08-22T18:30:11.893Z,27.68
2018-08-22T18:32:42.191Z,27.58
2018-08-22T18:35:13.216Z,27.47
2018-08-22T18:37:43.455Z,27.36
2018-08-22T18:40:19.933Z,27.28
2018-08-22T18:42:59.400Z,27.20
2018-08-22T18:45:29.906Z,27.08
2018-08-22T18:48:01.724Z,26.97
2018-08-22T18:50:31.840Z,26.90
2018-08-22T18:53:03.108Z,26.82
2018-08-22T18:55:34.283Z,26.74
2018-08-22T18:58:06.471Z,26.67
2018-08-22T19:00:38.575Z,26.55
2018-08-22T19:03:08.651Z,26.45
2018-08-22T19:05:39.308Z,26.36
2018-08-22T19:08:15.273Z,26.25
2018-08-22T19:10:46.647Z,26.14
2018-08-22T19:13:17.626Z,26.06
2018-08-22T19:15:48.687Z,25.99
2018-08-22T19:18:18.752Z,25.94
2018-08-22T19:20:49.047Z,25.90
2018-08-22T19:23:19.273Z,25.84
2018-08-22T19:25:50.506Z,25.78
2018-08-22T19:28:20.393Z,25.73
2018-08-22T19:30:50.311Z,25.66
2018-08-22T19:33:26.311Z,25.58
2018-08-22T19:35:56.759Z,25.51
2018-08-22T19:38:28.678Z,25.46
2018-08-22T19:41:00.304Z,25.39
2018-08-22T19:43:30.449Z,25.29
2018-08-22T19:46:00.367Z,25.20
2018-08-22T19:48:30.420Z,25.10
2018-08-22T19:51:00.827Z,25.01
2018-08-22T19:53:30.849Z,24.92
2018-08-22T19:56:00.783Z,24.85
2018-08-22T19:58:34.559Z,24.77
2018-08-22T20:01:06.467Z,24.63
2018-08-22T20:03:36.588Z,24.61
2018-08-22T20:06:06.668Z,24.54
2018-08-22T20:08:37.819Z,24.48
2018-08-22T20:11:08.278Z,24.44
2018-08-22T20:13:50.009Z,24.41
2018-08-22T20:16:21.839Z,24.39
2018-08-22T20:18:53.992Z,24.37
2018-08-22T20:21:39.352Z,24.32
2018-08-22T20:24:11.139Z,24.27
2018-08-22T20:26:50.555Z,24.19
2018-08-22T20:29:20.520Z,24.11
2018-08-22T20:31:50.511Z,24.05
2018-08-22T20:34:20.704Z,23.99
2018-08-22T20:36:50.788Z,23.94
2018-08-22T20:39:20.884Z,23.87
2018-08-22T20:41:56.233Z,23.79
2018-08-22T20:44:26.254Z,23.71
2018-08-22T20:46:56.236Z,23.66
2018-08-22T20:49:26.088Z,23.61
2018-08-22T20:51:56.150Z,23.57
2018-08-22T20:54:26.101Z,23.54
2018-08-22T20:57:01.639Z,23.50
2018-08-22T20:59:31.636Z,23.47
2018-08-22T21:02:05.712Z,23.42
2018-08-22T21:04:36.935Z,23.39
2018-08-22T21:07:06.994Z,23.33
2018-08-22T21:09:37.057Z,23.28
2018-08-22T21:12:07.082Z,23.22
2018-08-22T21:14:37.123Z,23.15
2018-08-22T21:17:07.179Z,23.11
2018-08-22T21:19:37.377Z,23.06
2018-08-22T21:22:18.120Z,22.99
2018-08-22T21:24:48.203Z,22.94
2018-08-22T21:27:18.248Z,22.94
2018-08-22T21:29:48.306Z,22.94
2018-08-22T21:32:18.792Z,22.92
2018-08-22T21:34:48.828Z,22.88
2018-08-22T21:37:28.823Z,22.88
2018-08-22T21:39:58.891Z,22.87
2018-08-22T21:42:32.875Z,22.85
2018-08-22T21:45:03.272Z,22.82
2018-08-22T21:47:33.315Z,22.78
2018-08-22T21:50:03.346Z,22.73
2018-08-22T21:53:06.982Z,22.65
2018-08-22T21:55:42.193Z,22.53
2018-08-22T21:58:12.949Z,22.44
2018-08-22T22:00:42.982Z,22.40
2018-08-22T22:03:13.989Z,22.34
2018-08-22T22:05:47.600Z,22.30
2018-08-22T22:08:17.991Z,22.28
2018-08-22T22:10:48.528Z,22.25
2018-08-22T22:13:18.483Z,22.23
2018-08-22T22:15:48.508Z,22.22
2018-08-22T22:18:18.407Z,22.21
2018-08-22T22:20:51.109Z,22.20
2018-08-22T22:23:21.262Z,22.19
2018-08-22T22:25:51.331Z,22.19
2018-08-22T22:28:24.071Z,22.19
2018-08-22T22:30:54.144Z,22.17
2018-08-22T22:33:24.082Z,22.12
2018-08-22T22:35:54.313Z,22.07
2018-08-22T22:38:24.309Z,22.01
2018-08-22T22:40:54.392Z,21.94
2018-08-22T22:43:24.390Z,21.90
2018-08-22T22:45:54.573Z,21.86
2018-08-22T22:48:35.138Z,21.84
2018-08-22T22:51:05.234Z,21.82
2018-08-22T22:53:35.518Z,21.83
2018-08-22T22:56:05.854Z,21.83
2018-08-22T22:58:37.485Z,21.87
2018-08-22T23:01:08.004Z,21.89
2018-08-22T23:03:37.995Z,21.89
2018-08-22T23:06:08.003Z,21.88
2018-08-22T23:08:37.958Z,21.84
2018-08-22T23:11:07.969Z,21.68
2018-08-22T23:13:37.957Z,21.51
2018-08-22T23:16:07.915Z,21.35
2018-08-22T23:18:37.956Z,21.23
2018-08-22T23:21:08.028Z,21.15
2018-08-22T23:23:38.811Z,21.10
2018-08-22T23:26:14.947Z,21.05
2018-08-22T23:28:45.616Z,21.00
2018-08-22T23:31:19.401Z,20.99
2018-08-22T23:33:49.526Z,21.00
2018-08-22T23:36:19.514Z,21.02
2018-08-22T23:38:49.453Z,21.03
2018-08-22T23:41:19.420Z,21.01
2018-08-22T23:43:53.017Z,21.02
2018-08-22T23:46:23.045Z,21.02
2018-08-22T23:48:59.641Z,21.02
2018-08-22T23:51:29.679Z,21.00
2018-08-22T23:54:01.561Z,21.00
2018-08-22T23:56:32.302Z,20.91
2018-08-22T23:59:02.288Z,20.80
